createdAt,value
2023-04-10T00:02:32.069Z,17.77
2023-04-10T00:05:19.348Z,17.77
2023-04-10T00:08:06.380Z,17.78
2023-04-10T00:10:57.371Z,17.77
2023-04-10T00:13:45.233Z,17.78
2023-04-10T00:16:32.474Z,17.77
2023-04-10T00:19:19.366Z,17.78
2023-04-10T00:22:06.692Z,17.78
2023-04-10T00:24:54.022Z,17.78
2023-04-10T00:27:41.646Z,17.78
2023-04-10T00:30:28.878Z,17.79
2023-04-10T00:33:15.677Z,17.79
2023-04-10T00:36:02.723Z,17.79
2023-04-10T00:38:52.578Z,17.79
2023-04-10T00:41:39.483Z,17.79
2023-04-10T00:44:26.513Z,17.78
2023-04-10T00:47:14.445Z,17.78
2023-04-10T00:50:01.783Z,17.79
2023-04-10T00:52:49.863Z,17.79
2023-04-10T00:55:37.231Z,17.80
2023-04-10T00:58:24.343Z,17.79
2023-04-10T01:01:11.685Z,17.79
2023-04-10T01:03:59.752Z,17.78
2023-04-10T01:07:01.895Z,17.79
2023-04-10T01:10:18.383Z,17.79
2023-04-10T01:13:23.330Z,17.79
2023-04-10T01:16:18.885Z,17.79
2023-04-10T01:19:15.174Z,17.79
2023-04-10T01:22:04.026Z,17.79
2023-04-10T01:25:17.263Z,17.79
2023-04-10T01:28:19.147Z,17.79
2023-04-10T01:31:12.021Z,17.78
2023-04-10T01:34:05.026Z,17.78
2023-04-10T01:37:06.153Z,17.79
2023-04-10T01:40:03.493Z,17.78
2023-04-10T01:42:56.032Z,17.78
2023-04-10T01:45:52.036Z,17.78
2023-04-10T01:48:39.433Z,17.78
2023-04-10T01:51:28.073Z,17.77
2023-04-10T01:54:16.976Z,17.77
2023-04-10T01:57:04.690Z,17.77
2023-04-10T01:59:58.879Z,17.76
2023-04-10T02:02:46.444Z,17.76
2023-04-10T02:05:42.943Z,17.76
2023-04-10T02:08:59.156Z,17.76
2023-04-10T02:12:04.445Z,17.75
2023-04-10T02:14:56.306Z,17.75
2023-04-10T02:17:43.883Z,17.74
2023-04-10T02:20:32.602Z,17.74
2023-04-10T02:23:21.265Z,17.74
2023-04-10T02:26:09.360Z,17.73
2023-04-10T02:28:56.112Z,17.73
2023-04-10T02:31:44.048Z,17.73
2023-04-10T02:34:31.064Z,17.72
2023-04-10T02:37:19.195Z,17.72
2023-04-10T02:40:07.038Z,17.72
2023-04-10T02:43:03.676Z,17.72
2023-04-10T02:45:51.523Z,17.72
2023-04-10T02:48:45.604Z,17.71
2023-04-10T02:51:36.422Z,17.71
2023-04-10T02:54:23.772Z,17.70
2023-04-10T02:57:11.137Z,17.71
2023-04-10T02:59:58.375Z,17.71
2023-04-10T03:02:46.558Z,17.70
2023-04-10T03:05:36.652Z,17.69
2023-04-10T03:08:24.128Z,17.69
2023-04-10T03:11:11.144Z,17.67
2023-04-10T03:13:58.888Z,17.68
2023-04-10T03:16:47.810Z,17.67
2023-04-10T03:19:34.860Z,17.67
2023-04-10T03:22:22.286Z,17.67
2023-04-10T03:25:09.701Z,17.67
2023-04-10T03:27:57.635Z,17.67
2023-04-10T03:30:44.174Z,17.67
2023-04-10T03:33:31.186Z,17.66
2023-04-10T03:36:19.574Z,17.66
2023-04-10T03:39:07.654Z,17.65
2023-04-10T03:41:54.562Z,17.65
2023-04-10T03:44:45.778Z,17.64
2023-04-10T03:47:33.030Z,17.64
2023-04-10T03:50:21.244Z,17.64
2023-04-10T03:53:12.676Z,17.63
2023-04-10T03:55:59.410Z,17.62
2023-04-10T03:58:46.714Z,17.62
2023-04-10T04:01:33.943Z,17.61
2023-04-10T04:04:26.383Z,17.61
2023-04-10T04:07:25.256Z,17.61
2023-04-10T04:10:33.559Z,17.61
2023-04-10T04:13:46.284Z,17.61
2023-04-10T04:17:05.246Z,17.61
2023-04-10T04:19:58.923Z,17.61
2023-04-10T04:23:03.649Z,17.61
2023-04-10T04:26:02.462Z,17.61
2023-04-10T04:29:07.621Z,17.62
2023-04-10T04:32:18.026Z,17.64
2023-04-10T04:35:37.542Z,17.69
2023-04-10T04:38:46.365Z,17.75
2023-04-10T04:41:50.786Z,17.83
2023-04-10T04:44:56.457Z,17.90
2023-04-10T04:48:02.042Z,17.98
2023-04-10T04:51:21.458Z,18.07
2023-04-10T04:54:12.096Z,18.15
2023-04-10T04:57:11.076Z,18.23
2023-04-10T05:00:15.890Z,18.30
2023-04-10T05:03:32.797Z,18.38
2023-04-10T05:06:34.908Z,18.46
2023-04-10T05:09:42.162Z,18.54
2023-04-10T05:12:43.212Z,18.61
2023-04-10T05:19:05.587Z,18.77
2023-04-10T05:22:24.743Z,18.85
2023-04-10T05:25:31.521Z,18.91
2023-04-10T05:28:44.244Z,18.99
2023-04-10T05:32:04.430Z,19.06
2023-04-10T05:35:02.724Z,19.13
2023-04-10T05:37:59.235Z,19.20
2023-04-10T05:41:02.967Z,19.27
2023-04-10T05:44:08.619Z,19.34
2023-04-10T05:47:20.141Z,19.42
2023-04-10T05:50:37.038Z,19.50
2023-04-10T05:53:42.892Z,19.57
2023-04-10T05:56:47.012Z,19.64
2023-04-10T05:59:52.459Z,19.70
2023-04-10T06:03:05.177Z,19.76
2023-04-10T06:05:52.485Z,19.82
2023-04-10T06:08:39.622Z,19.87
2023-04-10T06:11:27.337Z,19.92
2023-04-10T06:14:15.402Z,19.96
2023-04-10T06:17:03.734Z,20.00
2023-04-10T06:19:50.648Z,20.04
2023-04-10T06:22:37.461Z,20.09
2023-04-10T06:25:26.761Z,20.14
2023-04-10T06:28:14.304Z,20.18
2023-04-10T06:31:05.987Z,20.22
2023-04-10T06:33:55.862Z,20.27
2023-04-10T06:36:43.600Z,20.32
2023-04-10T06:39:30.820Z,20.37
2023-04-10T06:42:17.834Z,20.41
2023-04-10T06:45:17.349Z,20.45
2023-04-10T06:48:05.244Z,20.49
2023-04-10T06:50:52.071Z,20.52
2023-04-10T06:53:39.011Z,20.56
2023-04-10T06:56:26.021Z,20.58
2023-04-10T06:59:12.835Z,20.61
2023-04-10T07:01:59.565Z,20.65
2023-04-10T07:04:46.894Z,20.68
2023-04-10T07:07:34.292Z,20.71
2023-04-10T07:10:21.302Z,20.74
2023-04-10T07:13:08.127Z,20.77
2023-04-10T07:15:55.166Z,20.79
2023-04-10T07:18:42.791Z,20.82
2023-04-10T07:21:29.680Z,20.85
2023-04-10T07:24:17.716Z,20.88
2023-04-10T07:27:04.736Z,20.91
2023-04-10T07:29:55.439Z,20.94
2023-04-10T07:32:42.690Z,20.96
2023-04-10T07:35:30.492Z,20.99
2023-04-10T07:38:18.014Z,21.02
2023-04-10T07:41:05.754Z,21.05
2023-04-10T07:43:52.772Z,21.07
2023-04-10T07:46:39.685Z,21.10
2023-04-10T07:49:27.314Z,21.13
2023-04-10T07:52:14.120Z,21.15
2023-04-10T07:55:04.421Z,21.17
2023-04-10T07:57:52.460Z,21.19
2023-04-10T08:00:39.577Z,21.21
2023-04-10T08:03:26.679Z,21.24
2023-04-10T08:06:14.245Z,21.26
2023-04-10T08:09:02.207Z,21.28
2023-04-10T08:11:48.989Z,21.30
2023-04-10T08:14:35.984Z,21.32
2023-04-10T08:20:16.085Z,21.38
2023-04-10T08:23:17.212Z,21.40
2023-04-10T08:26:07.704Z,21.40
2023-04-10T08:28:57.305Z,21.40
2023-04-10T08:31:44.197Z,21.40
2023-04-10T08:34:31.267Z,21.40
2023-04-10T08:37:19.838Z,21.42
2023-04-10T08:40:07.099Z,21.43
2023-04-10T08:42:54.191Z,21.42
2023-04-10T08:45:41.780Z,21.41
2023-04-10T08:48:57.930Z,21.41
2023-04-10T08:52:07.493Z,21.39
2023-04-10T08:54:56.129Z,21.38
2023-04-10T08:57:50.791Z,21.40
2023-04-10T09:00:44.901Z,21.41
2023-04-10T09:03:32.514Z,21.43
2023-04-10T09:06:19.554Z,21.44
2023-04-10T09:09:07.396Z,21.45
2023-04-10T09:11:56.691Z,21.45
2023-04-10T09:14:43.712Z,21.45
2023-04-10T09:17:30.839Z,21.44
2023-04-10T09:20:22.387Z,21.43
2023-04-10T09:23:22.213Z,21.40
2023-04-10T09:26:32.607Z,21.39
2023-04-10T09:29:19.912Z,21.37
2023-04-10T09:32:06.523Z,21.36
2023-04-10T09:34:56.946Z,21.36
2023-04-10T09:37:45.987Z,21.36
2023-04-10T09:40:33.221Z,21.37
2023-04-10T09:43:27.588Z,21.39
2023-04-10T09:46:26.616Z,21.41
2023-04-10T09:49:13.822Z,21.42
2023-04-10T09:52:00.941Z,21.43
2023-04-10T09:54:47.936Z,21.43
2023-04-10T09:57:36.280Z,21.43
2023-04-10T10:00:23.539Z,21.44
2023-04-10T10:03:13.430Z,21.45
2023-04-10T10:06:00.420Z,21.47
2023-04-10T10:08:49.265Z,21.49
2023-04-10T10:11:36.386Z,21.51
2023-04-10T10:14:29.173Z,21.54
2023-04-10T10:17:21.393Z,21.55
2023-04-10T10:20:10.869Z,21.55
2023-04-10T10:22:59.197Z,21.57
2023-04-10T10:25:46.857Z,21.60
2023-04-10T10:28:37.560Z,21.62
2023-04-10T10:31:26.221Z,21.64
2023-04-10T10:34:16.569Z,21.66
2023-04-10T10:37:04.938Z,21.67
2023-04-10T10:40:06.801Z,21.69
2023-04-10T10:43:27.402Z,21.72
2023-04-10T10:46:41.548Z,21.75
2023-04-10T10:49:54.605Z,21.77
2023-04-10T10:53:02.388Z,21.80
2023-04-10T10:55:49.296Z,21.82
2023-04-10T10:58:52.902Z,21.84
2023-04-10T11:02:16.761Z,21.86
2023-04-10T11:05:04.200Z,21.89
2023-04-10T11:08:00.649Z,21.90
2023-04-10T11:11:07.498Z,21.91
2023-04-10T11:13:57.323Z,21.91
2023-04-10T11:16:47.110Z,21.92
2023-04-10T11:19:59.437Z,21.93
2023-04-10T11:23:13.244Z,21.94
2023-04-10T11:26:00.570Z,21.95
2023-04-10T11:28:47.381Z,21.96
2023-04-10T11:31:34.720Z,21.96
2023-04-10T11:34:21.809Z,21.97
2023-04-10T11:37:08.523Z,21.97
2023-04-10T11:40:06.537Z,21.98
2023-04-10T11:42:53.404Z,21.98
2023-04-10T11:45:41.067Z,21.98
2023-04-10T11:48:29.486Z,21.98
2023-04-10T11:51:16.511Z,21.98
2023-04-10T11:54:14.268Z,21.98
2023-04-10T11:57:04.828Z,21.98
2023-04-10T11:59:51.994Z,21.99
2023-04-10T12:02:56.374Z,22.00
2023-04-10T12:05:47.823Z,22.00
2023-04-10T12:08:37.361Z,22.01
2023-04-10T12:11:25.849Z,22.01
2023-04-10T12:14:13.179Z,22.01
2023-04-10T12:17:03.994Z,22.01
2023-04-10T12:19:50.888Z,22.01
2023-04-10T12:22:38.627Z,22.01
2023-04-10T12:25:25.954Z,22.02
2023-04-10T12:28:18.792Z,22.02
2023-04-10T12:31:06.517Z,22.03
2023-04-10T12:33:57.643Z,22.05
2023-04-10T12:36:52.460Z,22.05
2023-04-10T12:39:39.360Z,22.05
2023-04-10T12:42:27.438Z,22.05
2023-04-10T12:45:15.314Z,22.05
2023-04-10T12:48:02.929Z,22.05
2023-04-10T12:50:50.189Z,22.05
2023-04-10T12:53:47.056Z,22.05
2023-04-10T12:56:51.657Z,22.05
2023-04-10T12:59:39.206Z,22.05
2023-04-10T13:02:28.426Z,22.05
2023-04-10T13:05:16.098Z,22.05
2023-04-10T13:08:03.554Z,22.05
2023-04-10T13:10:51.372Z,22.06
2023-04-10T13:13:38.376Z,22.06
2023-04-10T13:16:25.835Z,22.08
2023-04-10T13:19:13.325Z,22.11
2023-04-10T13:22:01.324Z,22.15
2023-04-10T13:24:48.080Z,22.17
2023-04-10T13:27:34.862Z,22.20
2023-04-10T13:30:21.910Z,22.22
2023-04-10T13:33:09.913Z,22.24
2023-04-10T13:35:57.159Z,22.25
2023-04-10T13:38:44.489Z,22.26
2023-04-10T13:41:31.606Z,22.25
2023-04-10T13:44:18.724Z,22.25
2023-04-10T13:47:06.650Z,22.24
2023-04-10T13:49:53.988Z,22.23
2023-04-10T13:52:40.798Z,22.23
2023-04-10T13:55:27.924Z,22.22
2023-04-10T13:58:15.131Z,22.22
2023-04-10T14:01:02.318Z,22.21
2023-04-10T14:03:49.039Z,22.19
2023-04-10T14:06:36.076Z,22.12
2023-04-10T14:09:22.965Z,22.08
2023-04-10T14:12:10.941Z,22.08
2023-04-10T14:14:57.860Z,22.07
2023-04-10T14:17:45.010Z,22.07
2023-04-10T14:20:32.242Z,22.07
2023-04-10T14:23:19.096Z,22.06
2023-04-10T14:26:06.600Z,22.06
2023-04-10T14:28:54.000Z,22.05
2023-04-10T14:31:54.631Z,21.99
2023-04-10T14:34:44.589Z,21.95
2023-04-10T14:37:31.585Z,21.92
2023-04-10T14:40:18.297Z,21.89
2023-04-10T14:43:05.505Z,21.87
2023-04-10T14:45:52.315Z,21.83
2023-04-10T14:48:39.932Z,21.78
2023-04-10T14:51:27.898Z,21.75
2023-04-10T14:54:17.164Z,21.73
2023-04-10T14:57:04.583Z,21.68
2023-04-10T14:59:51.809Z,21.68
2023-04-10T15:02:39.173Z,21.68
2023-04-10T15:05:27.759Z,21.62
2023-04-10T15:08:14.416Z,21.52
2023-04-10T15:11:02.241Z,21.40
2023-04-10T15:13:49.253Z,21.31
2023-04-10T15:16:36.386Z,21.24
2023-04-10T15:19:23.590Z,21.20
2023-04-10T15:22:10.350Z,21.21
2023-04-10T15:24:57.514Z,21.23
2023-04-10T15:27:44.840Z,21.22
2023-04-10T15:30:31.894Z,21.16
2023-04-10T15:33:18.558Z,21.10
2023-04-10T15:36:08.234Z,21.10
2023-04-10T15:38:55.963Z,21.12
2023-04-10T15:41:42.692Z,21.10
2023-04-10T15:44:30.066Z,21.08
2023-04-10T15:47:17.433Z,21.04
2023-04-10T15:50:05.020Z,21.02
2023-04-10T15:52:51.774Z,21.02
2023-04-10T15:55:41.506Z,21.03
2023-04-10T15:58:28.662Z,21.06
2023-04-10T16:01:15.822Z,21.09
2023-04-10T16:04:03.089Z,21.14
2023-04-10T16:06:50.352Z,21.15
2023-04-10T16:09:37.564Z,21.09
2023-04-10T16:12:24.676Z,20.98
2023-04-10T16:15:11.784Z,20.86
2023-04-10T16:17:58.651Z,20.64
2023-04-10T16:20:45.512Z,20.38
2023-04-10T16:23:32.333Z,20.11
2023-04-10T16:26:19.647Z,19.89
2023-04-10T16:29:07.077Z,19.71
2023-04-10T16:31:54.236Z,19.57
2023-04-10T16:34:41.405Z,19.40
2023-04-10T16:37:29.656Z,19.26
2023-04-10T16:40:16.774Z,19.10
2023-04-10T16:43:03.877Z,18.95
2023-04-10T16:46:00.431Z,18.80
2023-04-10T16:48:47.034Z,18.70
2023-04-10T16:51:34.150Z,18.58
2023-04-10T16:54:20.874Z,18.44
2023-04-10T16:57:07.566Z,18.33
2023-04-10T17:00:00.655Z,18.21
2023-04-10T17:02:49.468Z,18.03
2023-04-10T17:05:38.863Z,17.88
2023-04-10T17:08:25.886Z,17.74
2023-04-10T17:11:13.305Z,17.62
2023-04-10T17:14:00.362Z,17.51
2023-04-10T17:16:47.444Z,17.34
2023-04-10T17:19:34.561Z,17.16
2023-04-10T17:22:23.317Z,17.00
2023-04-10T17:25:11.960Z,16.88
2023-04-10T17:27:58.683Z,16.83
2023-04-10T17:30:45.380Z,16.75
2023-04-10T17:33:32.506Z,16.64
2023-04-10T17:36:19.551Z,16.51
2023-04-10T17:39:06.749Z,16.41
2023-04-10T17:41:54.169Z,16.34
2023-04-10T17:44:41.022Z,16.26
2023-04-10T17:47:28.224Z,16.18
2023-04-10T17:50:15.272Z,16.10
2023-04-10T17:53:02.609Z,16.06
2023-04-10T17:55:49.553Z,16.03
2023-04-10T17:58:36.560Z,15.99
2023-04-10T18:01:26.127Z,15.90
2023-04-10T18:04:14.168Z,15.81
2023-04-10T18:07:01.029Z,15.76
2023-04-10T18:09:47.914Z,15.74
2023-04-10T18:12:34.935Z,15.74
2023-04-10T18:15:22.052Z,15.76
2023-04-10T18:18:09.302Z,15.75
2023-04-10T18:20:56.175Z,15.73
2023-04-10T18:23:44.930Z,15.72
2023-04-10T18:26:33.484Z,15.72
2023-04-10T18:29:20.600Z,15.72
2023-04-10T18:32:07.934Z,15.69
2023-04-10T18:34:54.539Z,15.64
2023-04-10T18:37:42.365Z,15.59
2023-04-10T18:40:28.956Z,15.58
2023-04-10T18:43:16.289Z,15.58
2023-04-10T18:46:03.536Z,15.63
2023-04-10T18:48:53.477Z,15.63
2023-04-10T18:51:40.857Z,15.65
2023-04-10T18:54:29.934Z,15.70
2023-04-10T18:57:17.845Z,15.74
2023-04-10T19:00:07.056Z,15.76
2023-04-10T19:02:55.161Z,15.71
2023-04-10T19:05:42.866Z,15.63
2023-04-10T19:08:29.891Z,15.48
2023-04-10T19:11:17.889Z,15.38
2023-04-10T19:14:06.382Z,15.30
2023-04-10T19:16:56.465Z,15.20
2023-04-10T19:19:42.961Z,15.12
2023-04-10T19:22:31.820Z,15.02
2023-04-10T19:25:19.048Z,14.92
2023-04-10T19:28:07.071Z,14.88
2023-04-10T19:30:54.219Z,14.90
2023-04-10T19:33:41.631Z,14.91
2023-04-10T19:36:28.947Z,14.95
2023-04-10T19:39:16.251Z,14.94
2023-04-10T19:42:03.501Z,14.94
2023-04-10T19:44:50.518Z,14.86
2023-04-10T19:47:37.872Z,14.79
2023-04-10T19:50:24.955Z,14.70
2023-04-10T19:53:13.030Z,14.60
2023-04-10T19:55:59.904Z,14.54
2023-04-10T19:58:47.141Z,14.50
2023-04-10T20:01:34.771Z,14.49
2023-04-10T20:04:22.126Z,14.47
2023-04-10T20:07:09.146Z,14.48
2023-04-10T20:09:56.232Z,14.49
2023-04-10T20:12:42.951Z,14.50
2023-04-10T20:15:29.938Z,14.52
2023-04-10T20:18:17.214Z,14.52
2023-04-10T20:21:04.783Z,14.53
2023-04-10T20:23:51.905Z,14.50
2023-04-10T20:26:38.718Z,14.50
2023-04-10T20:29:26.657Z,14.46
2023-04-10T20:32:13.312Z,14.40
2023-04-10T20:35:00.597Z,14.32
2023-04-10T20:37:49.037Z,14.27
2023-04-10T20:40:36.471Z,14.25
2023-04-10T20:43:23.375Z,14.24
2023-04-10T20:46:10.184Z,14.25
2023-04-10T20:48:59.322Z,14.26
2023-04-10T20:51:47.586Z,14.26
2023-04-10T20:54:34.632Z,14.25
2023-04-10T20:57:21.230Z,14.23
2023-04-10T21:00:09.148Z,14.23
2023-04-10T21:02:56.041Z,14.22
2023-04-10T21:05:42.979Z,14.21
2023-04-10T21:08:29.850Z,14.18
2023-04-10T21:11:19.782Z,14.15
2023-04-10T21:14:06.690Z,14.11
2023-04-10T21:16:53.773Z,14.07
2023-04-10T21:19:40.960Z,14.06
2023-04-10T21:22:29.330Z,14.06
2023-04-10T21:25:16.614Z,14.05
2023-04-10T21:28:04.036Z,14.02
2023-04-10T21:30:50.715Z,14.00
2023-04-10T21:33:38.293Z,14.00
2023-04-10T21:36:26.639Z,14.03
2023-04-10T21:39:13.690Z,14.03
2023-04-10T21:42:00.557Z,14.04
2023-04-10T21:44:47.463Z,14.01
2023-04-10T21:47:34.166Z,13.98
2023-04-10T21:50:21.085Z,13.98
2023-04-10T21:53:08.201Z,13.96
2023-04-10T21:55:54.800Z,13.93
2023-04-10T21:58:42.031Z,13.88
2023-04-10T22:01:29.277Z,13.88
2023-04-10T22:04:16.327Z,13.86
2023-04-10T22:07:05.268Z,13.84
2023-04-10T22:09:52.545Z,13.81
2023-04-10T22:12:39.877Z,13.80
2023-04-10T22:15:26.819Z,13.78
2023-04-10T22:18:13.858Z,13.74
2023-04-10T22:21:01.025Z,13.70
2023-04-10T22:23:48.048Z,13.70
2023-04-10T22:26:35.693Z,13.71
2023-04-10T22:29:22.688Z,13.69
2023-04-10T22:32:09.925Z,13.65
2023-04-10T22:34:58.890Z,13.63
2023-04-10T22:37:45.983Z,13.61
2023-04-10T22:40:32.901Z,13.59
2023-04-10T22:43:19.814Z,13.59
2023-04-10T22:46:07.291Z,13.58
2023-04-10T22:48:55.777Z,13.56
2023-04-10T22:51:46.005Z,13.54
2023-04-10T22:54:32.691Z,13.50
2023-04-10T22:57:19.612Z,13.48
2023-04-10T23:00:07.747Z,13.46
2023-04-10T23:02:54.434Z,13.42
2023-04-10T23:05:41.674Z,13.46
2023-04-10T23:08:28.697Z,13.57
2023-04-10T23:11:15.651Z,13.74
2023-04-10T23:14:02.150Z,13.89
2023-04-10T23:16:49.731Z,14.06
2023-04-10T23:19:36.553Z,14.21
2023-04-10T23:22:23.374Z,14.37
2023-04-10T23:25:10.481Z,14.52
2023-04-10T23:27:59.649Z,14.67
2023-04-10T23:30:46.523Z,14.83
2023-04-10T23:33:33.305Z,14.98
2023-04-10T23:36:20.177Z,15.12
2023-04-10T23:39:07.203Z,15.27
2023-04-10T23:41:53.917Z,15.40
2023-04-10T23:44:41.003Z,15.54
2023-04-10T23:47:27.945Z,15.68
2023-04-10T23:50:14.820Z,15.80
2023-04-10T23:53:02.171Z,15.93
2023-04-10T23:55:49.001Z,16.06
2023-04-10T23:58:36.057Z,16.17
